Time;durP1;ratioP1;P1;durP2;ratioP2;P2;SDS_P1;SDS_P2;PMS_P1;PMS_P2;Temp;Humidity;BMP_temperature;BMP_pressure;BME280_temperature;BME280_humidity;BME280_pressure;Samples;Min_cycle;Max_cycle;Signal;HPM_P1;HPM_P2
2023/08/13 00:02:14;;;;;;;;;;;22.50;58.50;;;18.57;100.00;95818.50;5007056;28;19933;-47
2023/08/13 00:04:39;;;;;;;;;;;22.40;58.50;;;18.55;100.00;95818.81;5002241;28;19924;-49
2023/08/13 00:07:05;;;;;;;;;;;22.40;58.50;;;18.44;100.00;95820.16;5005879;28;19917;-48
2023/08/13 00:09:31;;;;;;;;;;;22.30;58.50;;;18.43;100.00;95810.50;5005097;28;19916;-48
2023/08/13 00:11:57;;;;;;;;;;;22.30;58.60;;;18.40;100.00;95809.22;5006958;28;19909;-45
2023/08/13 00:14:23;;;;;;;;;;;22.30;58.70;;;18.36;100.00;95813.59;5001639;28;19920;-46
2023/08/13 00:16:49;;;;;;;;;;;22.20;58.70;;;18.36;100.00;95810.13;4999775;28;20004;-46
2023/08/13 00:19:15;;;;;;;;;;;22.20;59.40;;;18.32;100.00;95817.25;5012533;28;20032;-45
2023/08/13 00:21:41;;;;;;;;;;;22.20;58.90;;;18.28;100.00;95811.69;5000696;28;20111;-47
2023/08/13 00:24:07;;;;;;;;;;;22.20;59.00;;;18.27;100.00;95808.19;5004621;28;20456;-48
2023/08/13 00:26:34;;;;;;;;;;;22.10;59.00;;;18.20;100.00;95810.50;5005429;28;19917;-46
2023/08/13 00:28:59;;;;;;;;;;;22.10;59.10;;;18.17;100.00;95805.72;5002069;28;19917;-51
2023/08/13 00:31:25;;;;;;;;;;;22.10;59.20;;;18.18;100.00;95812.72;4999859;28;19913;-47
2023/08/13 00:33:51;;;;;;;;;;;22.10;59.30;;;18.12;100.00;95813.16;5001934;28;20345;-47
2023/08/13 00:36:17;;;;;;;;;;;22.00;59.30;;;18.09;100.00;95814.56;5012218;28;19909;-49
2023/08/13 00:38:42;;;;;;;;;;;22.00;59.30;;;18.12;100.00;95815.84;5004953;28;19920;-46
2023/08/13 00:41:08;;;;;;;;;;;22.00;59.40;;;18.08;100.00;95807.56;5007346;28;19909;-44
2023/08/13 00:43:37;;;;;;;;;;;22.00;59.50;;;18.07;100.00;95800.59;5004222;28;20372;-44
2023/08/13 00:46:04;;;;;;;;;;;21.90;59.50;;;18.00;100.00;95803.72;4999538;28;19913;-45
2023/08/13 00:48:31;;;;;;;;;;;21.90;59.50;;;18.00;100.00;95800.22;5002969;28;19909;-46
2023/08/13 00:50:58;;;;;;;;;;;21.90;59.60;;;17.98;100.00;95795.13;4995632;28;20403;-45
2023/08/13 00:53:25;;;;;;;;;;;21.90;59.80;;;17.99;100.00;95801.34;5003588;28;20008;-47
2023/08/13 00:55:51;;;;;;;;;;;21.90;59.80;;;17.99;100.00;95801.34;5002123;28;19916;-45
2023/08/13 00:58:18;;;;;;;;;;;21.80;59.70;;;17.99;100.00;95801.34;5011608;28;19909;-46
2023/08/13 01:00:44;;;;;;;;;;;21.90;59.80;;;17.98;100.00;95799.72;4998859;28;19944;-49
2023/08/13 01:03:10;;;;;;;;;;;21.80;59.80;;;17.95;100.00;95803.03;5002122;28;20276;-44
2023/08/13 01:05:57;;;;;;;;;;;21.90;59.90;;;17.92;100.00;95799.03;5006181;28;19916;-45
2023/08/13 01:08:59;;;;;;;;;;;21.90;60.00;;;17.89;100.00;95791.56;5014314;28;19960;-48
2023/08/13 01:11:47;;;;;;;;;;;21.80;60.00;;;17.90;100.00;95795.88;5012306;28;19910;-48
2023/08/13 01:14:40;;;;;;;;;;;21.80;60.20;;;17.94;100.00;95796.06;5006928;28;19913;-46
2023/08/13 01:17:09;;;;;;;;;;;21.80;60.20;;;17.92;100.00;95795.56;5008821;28;20050;-48
2023/08/13 01:19:35;;;;;;;;;;;21.70;60.20;;;17.88;100.00;95791.88;5002291;28;20003;-44
2023/08/13 01:22:01;;;;;;;;;;;21.70;60.30;;;17.80;100.00;95788.84;5007845;28;20415;-45
2023/08/13 01:24:26;;;;;;;;;;;21.70;60.30;;;17.78;100.00;95791.03;5003355;28;19917;-45
2023/08/13 01:27:11;;;;;;;;;;;21.70;60.40;;;17.77;100.00;95791.34;5006291;28;20008;-45
2023/08/13 01:29:46;;;;;;;;;;;21.60;60.40;;;17.73;100.00;95790.31;5005896;28;19916;-45
2023/08/13 01:32:16;;;;;;;;;;;21.60;60.40;;;17.72;100.00;95791.41;4994664;28;19909;-48
2023/08/13 01:34:43;;;;;;;;;;;21.60;60.60;;;17.72;100.00;95786.81;5022107;28;19914;-46
2023/08/13 01:37:09;;;;;;;;;;;21.60;60.70;;;17.74;100.00;95792.72;5007868;28;20344;-46
2023/08/13 01:39:35;;;;;;;;;;;21.60;60.80;;;17.72;100.00;95778.75;5006752;28;20296;-45
2023/08/13 01:42:01;;;;;;;;;;;21.60;60.80;;;17.72;100.00;95786.81;5011133;28;20264;-45
2023/08/13 01:44:27;;;;;;;;;;;21.60;60.90;;;17.73;100.00;95798.41;5004537;28;19913;-45
2023/08/13 01:46:53;;;;;;;;;;;21.60;60.90;;;17.71;100.00;95796.03;5001804;28;19915;-45
2023/08/13 01:49:19;;;;;;;;;;;21.50;60.90;;;17.66;100.00;95796.13;5001190;28;19932;-47
2023/08/13 01:51:45;;;;;;;;;;;21.60;61.10;;;17.68;100.00;95804.72;5005127;28;19909;-45
2023/08/13 01:54:11;;;;;;;;;;;21.50;61.10;;;17.67;100.00;95800.41;5013302;28;19909;-49
2023/08/13 01:56:37;;;;;;;;;;;21.50;61.10;;;17.62;100.00;95789.75;5001287;28;19916;-47
2023/08/13 01:59:02;;;;;;;;;;;21.50;61.00;;;17.58;100.00;95797.66;5011453;28;19913;-46
2023/08/13 02:01:28;;;;;;;;;;;21.50;61.10;;;17.60;100.00;95796.53;5011496;28;19909;-45
2023/08/13 02:03:54;;;;;;;;;;;21.50;61.20;;;17.60;100.00;95801.94;5025540;23;19925;-47
2023/08/13 02:06:20;;;;;;;;;;;21.50;61.30;;;17.59;100.00;95803.84;5009789;28;19924;-45
2023/08/13 02:08:46;;;;;;;;;;;21.40;61.30;;;17.60;100.00;95807.31;5008171;28;19913;-43
2023/08/13 02:11:11;;;;;;;;;;;21.40;61.40;;;17.61;100.00;95806.22;4995915;28;19952;-46
2023/08/13 02:13:37;;;;;;;;;;;21.40;61.40;;;17.62;100.00;95814.00;5003587;28;19915;-47
2023/08/13 02:16:04;;;;;;;;;;;21.40;61.50;;;17.58;100.00;95815.72;5014607;28;19909;-45
2023/08/13 02:18:31;;;;;;;;;;;21.40;61.50;;;17.49;100.00;95812.94;5006406;28;19911;-47
2023/08/13 02:20:56;;;;;;;;;;;21.40;61.50;;;17.50;100.00;95800.25;5010996;28;19917;-45
2023/08/13 02:23:22;;;;;;;;;;;21.40;61.50;;;17.48;100.00;95795.16;5000287;28;19920;-46
2023/08/13 02:25:49;;;;;;;;;;;21.40;61.50;;;17.42;100.00;95792.88;5013659;28;19909;-46
2023/08/13 02:28:14;;;;;;;;;;;21.30;61.50;;;17.39;100.00;95802.38;5012912;28;20298;-44
2023/08/13 02:30:40;;;;;;;;;;;21.30;61.50;;;17.37;100.00;95796.50;5014023;28;19909;-44
2023/08/13 02:33:06;;;;;;;;;;;21.30;61.60;;;17.38;100.00;95797.28;5008829;28;19918;-45
2023/08/13 02:35:32;;;;;;;;;;;21.30;61.70;;;17.39;100.00;95796.97;5017051;28;20013;-44
2023/08/13 02:37:57;;;;;;;;;;;21.30;61.80;;;17.35;100.00;95787.94;5010535;28;20016;-45
2023/08/13 02:40:23;;;;;;;;;;;21.30;61.80;;;17.31;100.00;95792.31;5014110;28;19909;-44
2023/08/13 02:42:49;;;;;;;;;;;21.20;61.80;;;17.29;100.00;95795.31;5013359;28;20295;-45
2023/08/13 02:45:15;;;;;;;;;;;21.20;61.80;;;17.23;100.00;95787.63;5002708;28;19919;-46
2023/08/13 02:47:40;;;;;;;;;;;21.20;61.90;;;17.20;100.00;95777.47;5007364;28;20016;-45
2023/08/13 02:50:07;;;;;;;;;;;21.20;61.90;;;17.19;100.00;95776.69;5001820;28;20004;-47
2023/08/13 02:52:32;;;;;;;;;;;21.10;62.00;;;17.19;100.00;95779.38;5000536;28;20367;-48
2023/08/13 02:54:58;;;;;;;;;;;21.10;62.10;;;17.20;100.00;95772.09;5003892;28;19959;-44
2023/08/13 02:57:24;;;;;;;;;;;21.10;62.10;;;17.17;100.00;95770.78;5003087;28;19909;-45
2023/08/13 02:59:50;;;;;;;;;;;21.10;62.20;;;17.17;100.00;95778.09;5002912;28;20363;-44
2023/08/13 03:02:16;;;;;;;;;;;21.10;62.20;;;17.14;100.00;95770.59;5006322;28;19910;-49
2023/08/13 03:04:42;;;;;;;;;;;21.10;62.20;;;17.08;100.00;95772.63;5004430;28;19960;-44
2023/08/13 03:07:08;;;;;;;;;;;21.00;62.20;;;17.05;100.00;95768.66;4999687;28;19956;-44
2023/08/13 03:09:34;;;;;;;;;;;21.00;62.20;;;17.06;100.00;95778.31;5013903;28;19948;-44
2023/08/13 03:12:00;;;;;;;;;;;21.00;62.30;;;17.04;100.00;95772.41;5000317;28;20431;-44
2023/08/13 03:14:26;;;;;;;;;;;21.00;62.40;;;17.01;100.00;95770.31;5006303;28;20028;-44
2023/08/13 03:16:52;;;;;;;;;;;20.90;62.30;;;17.01;100.00;95764.16;5000905;28;19909;-49
2023/08/13 03:19:17;;;;;;;;;;;21.00;62.50;;;17.00;100.00;95770.63;5009312;28;19943;-46
2023/08/13 03:21:43;;;;;;;;;;;20.90;62.40;;;16.96;100.00;95758.88;5013467;28;19962;-43
2023/08/13 03:24:09;;;;;;;;;;;20.90;62.50;;;16.94;100.00;95753.00;5006758;28;19914;-45
2023/08/13 03:26:35;;;;;;;;;;;20.90;62.60;;;16.93;100.00;95760.28;5005998;28;19913;-44
2023/08/13 03:29:00;;;;;;;;;;;20.90;62.70;;;16.90;100.00;95763.56;4999700;28;19916;-46
2023/08/13 03:31:26;;;;;;;;;;;20.80;62.70;;;16.91;100.00;95762.47;5003909;28;19971;-44
2023/08/13 03:33:52;;;;;;;;;;;20.80;62.70;;;16.88;100.00;95757.69;4999404;28;19964;-48
2023/08/13 03:36:18;;;;;;;;;;;20.80;62.90;;;16.86;100.00;95757.22;5000771;28;20289;-45
2023/08/13 03:38:43;;;;;;;;;;;20.80;62.90;;;16.85;100.00;95750.22;5015168;28;20342;-45
2023/08/13 03:41:09;;;;;;;;;;;20.80;62.90;;;16.83;100.00;95753.22;5005157;28;20413;-44
2023/08/13 03:43:35;;;;;;;;;;;20.80;63.00;;;16.81;100.00;95755.41;4998602;28;20431;-48
2023/08/13 03:46:04;;;;;;;;;;;20.80;63.00;;;16.79;100.00;95757.59;5001281;28;19916;-47
2023/08/13 03:48:30;;;;;;;;;;;20.80;63.10;;;16.79;100.00;95754.88;5010530;28;20035;-44
2023/08/13 03:50:55;;;;;;;;;;;20.70;63.10;;;16.81;100.00;95762.69;5011570;28;20581;-44
2023/08/13 03:53:24;;;;;;;;;;;20.70;63.10;;;16.79;100.00;95757.59;4998935;28;19909;-44
2023/08/13 03:55:51;;;;;;;;;;;20.70;63.20;;;16.77;100.00;95762.47;5007105;28;20004;-45
2023/08/13 03:58:17;;;;;;;;;;;20.70;63.20;;;16.77;100.00;95767.88;5006841;28;19943;-46
2023/08/13 04:00:43;;;;;;;;;;;20.70;63.30;;;16.78;100.00;95769.44;5005382;28;19980;-45
2023/08/13 04:03:09;;;;;;;;;;;20.70;63.30;;;16.77;100.00;95772.44;5010808;28;19909;-48
2023/08/13 04:05:36;;;;;;;;;;;20.70;63.30;;;16.75;100.00;95775.41;4999138;28;27794;-47
2023/08/13 04:08:03;;;;;;;;;;;20.70;63.30;;;16.74;100.00;95775.72;5004892;28;19995;-44
2023/08/13 04:10:28;;;;;;;;;;;20.70;63.30;;;16.73;100.00;95777.56;5004381;28;19909;-46
2023/08/13 04:12:59;;;;;;;;;;;20.70;63.30;;;16.74;100.00;95781.88;4997855;28;19916;-53
2023/08/13 04:15:27;;;;;;;;;;;20.70;63.30;;;16.73;100.00;95782.94;5005538;28;19989;-44
2023/08/13 04:17:53;;;;;;;;;;;20.70;63.40;;;16.75;100.00;95782.66;5012218;28;19909;-46
2023/08/13 04:20:18;;;;;;;;;;;20.70;63.40;;;16.72;100.00;95789.44;4994304;28;19915;-47
2023/08/13 04:22:45;;;;;;;;;;;20.70;63.30;;;16.69;100.00;95790.03;5011478;28;19912;-44
2023/08/13 04:25:11;;;;;;;;;;;20.70;64.10;;;16.65;100.00;95792.53;5000072;28;19920;-46
2023/08/13 04:27:37;;;;;;;;;;;20.70;63.30;;;16.63;100.00;95785.84;5006999;28;19910;-52
2023/08/13 04:30:04;;;;;;;;;;;20.70;63.30;;;16.64;100.00;95795.53;5005674;28;19909;-43
2023/08/13 04:32:31;;;;;;;;;;;20.70;63.30;;;16.64;100.00;95787.47;4991790;28;19917;-44
2023/08/13 04:34:58;;;;;;;;;;;20.70;63.30;;;16.63;100.00;95791.22;4998830;28;19912;-43
2023/08/13 04:37:24;;;;;;;;;;;20.70;63.40;;;16.60;100.00;95787.22;5001594;28;19916;-46
2023/08/13 04:39:50;;;;;;;;;;;20.70;63.30;;;16.59;100.00;95785.66;5005279;28;19909;-44
2023/08/13 04:42:16;;;;;;;;;;;20.70;63.30;;;16.60;100.00;95779.16;5005235;28;19913;-49
2023/08/13 04:44:41;;;;;;;;;;;20.70;63.40;;;16.63;100.00;95777.78;5005524;28;19967;-44
2023/08/13 04:47:07;;;;;;;;;;;20.70;63.40;;;16.64;100.00;95779.38;4998445;28;19977;-49
2023/08/13 04:49:33;;;;;;;;;;;20.70;63.40;;;16.65;100.00;95780.97;5009775;28;20012;-44
2023/08/13 04:51:59;;;;;;;;;;;20.80;63.50;;;16.69;100.00;95784.66;4998099;28;19933;-51
2023/08/13 04:54:24;;;;;;;;;;;20.80;63.50;;;16.72;100.00;95780.56;4998063;28;19963;-47
2023/08/13 04:56:50;;;;;;;;;;;20.80;63.50;;;16.75;100.00;95786.19;5010614;28;19948;-49
2023/08/13 04:59:16;;;;;;;;;;;20.90;63.50;;;16.81;100.00;95786.88;4998868;28;20290;-50
2023/08/13 05:01:41;;;;;;;;;;;20.90;63.50;;;16.91;100.00;95796.66;5003933;28;19909;-49
2023/08/13 05:04:07;;;;;;;;;;;21.00;63.50;;;16.95;100.00;95789.56;5004473;28;19917;-45
2023/08/13 05:06:33;;;;;;;;;;;21.10;63.60;;;17.08;100.00;95792.25;5004608;28;19913;-46
2023/08/13 05:08:58;;;;;;;;;;;21.20;63.60;;;17.21;100.00;95792.56;5001344;28;20364;-43
2023/08/13 05:11:24;;;;;;;;;;;21.30;63.60;;;17.34;100.00;95786.34;5004758;28;19917;-43
2023/08/13 05:13:50;;;;;;;;;;;21.40;63.60;;;17.48;100.00;95794.38;4992026;28;19916;-44
2023/08/13 05:16:16;;;;;;;;;;;21.50;63.60;;;17.62;100.00;95797.06;5004456;28;20015;-49
2023/08/13 05:18:41;;;;;;;;;;;21.70;63.60;;;17.75;100.00;95798.91;4998359;28;19915;-44
2023/08/13 05:21:08;;;;;;;;;;;21.90;63.60;;;17.90;100.00;95800.47;5010382;28;20391;-49
2023/08/13 05:23:34;;;;;;;;;;;22.00;63.50;;;18.06;100.00;95799.00;5008893;28;19914;-45
2023/08/13 05:26:00;;;;;;;;;;;22.20;63.50;;;18.24;100.00;95806.09;5007740;28;19909;-44
2023/08/13 05:28:26;;;;;;;;;;;22.40;63.50;;;18.47;100.00;95796.06;5002443;28;19913;-44
2023/08/13 05:30:51;;;;;;;;;;;22.70;63.40;;;18.75;100.00;95809.41;5002611;28;19909;-45
2023/08/13 05:33:17;;;;;;;;;;;23.00;63.40;;;19.01;100.00;95812.19;5013051;28;20268;-49
2023/08/13 05:35:43;;;;;;;;;;;23.20;63.10;;;19.29;100.00;95811.97;5015544;28;19908;-47
2023/08/13 05:38:09;;;;;;;;;;;23.50;62.90;;;19.51;100.00;95809.16;5008573;28;19963;-47
2023/08/13 05:40:34;;;;;;;;;;;23.90;62.70;;;19.78;100.00;95818.13;5007976;28;19909;-44
2023/08/13 05:43:00;;;;;;;;;;;24.20;62.50;;;20.05;100.00;95823.19;5014728;28;20398;-45
2023/08/13 05:45:26;;;;;;;;;;;24.50;62.20;;;20.33;100.00;95822.84;5036581;28;20400;-45
2023/08/13 05:47:51;;;;;;;;;;;24.80;61.90;;;20.47;100.00;95814.56;4999764;28;20367;-46
2023/08/13 05:50:17;;;;;;;;;;;25.10;61.60;;;20.64;100.00;95821.84;5007847;28;19913;-45
2023/08/13 05:52:43;;;;;;;;;;;25.30;61.20;;;20.80;100.00;95822.91;5001213;28;19913;-45
2023/08/13 05:55:09;;;;;;;;;;;25.60;60.80;;;20.92;100.00;95814.13;5014136;28;19916;-45
2023/08/13 05:57:35;;;;;;;;;;;25.80;60.50;;;21.12;100.00;95826.13;5001830;28;20015;-46
2023/08/13 06:00:02;;;;;;;;;;;26.00;60.20;;;21.31;100.00;95823.00;5014849;28;20378;-45
2023/08/13 06:02:27;;;;;;;;;;;26.20;60.00;;;21.36;100.00;95809.31;5010176;28;19955;-55
2023/08/13 06:04:53;;;;;;;;;;;26.40;59.80;;;21.57;100.00;95817.47;5009479;28;20417;-47
2023/08/13 06:07:19;;;;;;;;;;;26.60;59.60;;;21.81;100.00;95809.50;5011069;28;20004;-46
2023/08/13 06:09:44;;;;;;;;;;;26.90;59.60;;;22.04;97.14;95807.22;4999381;28;19996;-44
2023/08/13 06:12:10;;;;;;;;;;;27.00;59.40;;;22.21;95.42;95811.72;4997756;28;19909;-50
2023/08/13 06:14:36;;;;;;;;;;;27.20;59.30;;;22.39;94.46;95815.06;5021078;28;19916;-45
2023/08/13 06:17:02;;;;;;;;;;;27.40;59.10;;;22.60;92.24;95801.44;5001888;28;19909;-44
2023/08/13 06:19:28;;;;;;;;;;;27.70;59.00;;;22.69;91.40;95804.88;4996850;28;19924;-43
2023/08/13 06:21:53;;;;;;;;;;;27.90;58.70;;;22.84;91.02;95804.19;4997020;28;19915;-48
2023/08/13 06:24:19;;;;;;;;;;;28.10;58.40;;;23.01;89.73;95808.66;4993665;28;19914;-48
2023/08/13 06:26:45;;;;;;;;;;;28.30;58.20;;;23.04;87.83;95813.41;5006435;28;19909;-48
2023/08/13 06:29:11;;;;;;;;;;;28.50;57.90;;;23.19;88.61;95811.97;4999595;28;20004;-44
2023/08/13 06:31:37;;;;;;;;;;;28.70;57.60;;;23.44;87.30;95809.19;4994576;28;19919;-49
2023/08/13 06:34:04;;;;;;;;;;;28.90;57.50;;;23.69;86.28;95813.53;5008756;28;19944;-47
2023/08/13 06:36:30;;;;;;;;;;;29.10;57.20;;;23.91;84.50;95819.56;4993707;28;19963;-49
2023/08/13 06:38:55;;;;;;;;;;;29.30;57.10;;;24.12;83.21;95816.69;4996642;28;20384;-45
2023/08/13 06:41:21;;;;;;;;;;;29.50;56.80;;;24.29;81.59;95821.03;5001604;28;20383;-43
2023/08/13 06:43:47;;;;;;;;;;;29.80;56.60;;;24.52;80.68;95824.81;4999662;28;19913;-46
2023/08/13 06:46:13;;;;;;;;;;;30.10;56.40;;;24.77;79.74;95830.91;5010371;28;19916;-46
2023/08/13 06:48:38;;;;;;;;;;;30.30;56.20;;;24.98;77.79;95822.50;4996436;28;19910;-48
2023/08/13 06:51:04;;;;;;;;;;;30.50;55.90;;;25.17;77.46;95823.75;4998619;28;19916;-44
2023/08/13 06:53:30;;;;;;;;;;;30.70;55.60;;;25.20;76.44;95825.78;4992105;28;19913;-45
2023/08/13 06:56:01;;;;;;;;;;;30.80;55.50;;;25.08;76.16;95823.91;4993493;28;19967;-45
2023/08/13 06:58:27;;;;;;;;;;;30.70;55.20;;;24.91;76.54;95827.75;4992815;28;19919;-50
2023/08/13 07:00:52;;;;;;;;;;;30.60;55.00;;;24.89;76.77;95822.66;5008488;28;20358;-45
2023/08/13 07:03:18;;;;;;;;;;;30.40;54.80;;;24.85;78.10;95819.06;5029148;28;20371;-51
2023/08/13 07:05:44;;;;;;;;;;;30.30;54.80;;;24.98;78.32;95824.44;5026467;28;19992;-44
2023/08/13 07:08:10;;;;;;;;;;;30.30;54.70;;;25.11;77.57;95831.38;5002734;28;19916;-44
2023/08/13 07:10:36;;;;;;;;;;;30.40;54.60;;;25.34;76.86;95828.84;5007581;28;19917;-46
2023/08/13 07:13:02;;;;;;;;;;;30.60;54.50;;;25.48;74.85;95823.72;4992115;28;20368;-54
2023/08/13 07:15:28;;;;;;;;;;;30.80;54.30;;;25.61;73.32;95818.94;4998773;28;20405;-46
2023/08/13 07:17:54;;;;;;;;;;;30.90;54.10;;;25.78;71.73;95818.53;5000590;28;19909;-51
2023/08/13 07:20:20;;;;;;;;;;;31.10;53.90;;;25.91;69.71;95819.22;5003004;28;20371;-45
2023/08/13 07:22:47;;;;;;;;;;;31.30;53.70;;;26.03;70.30;95821.81;4997822;28;19947;-50
2023/08/13 07:25:13;;;;;;;;;;;31.60;54.10;;;26.36;68.27;95811.56;5000014;28;19919;-43
2023/08/13 07:27:43;;;;;;;;;;;31.90;53.90;;;26.68;66.93;95814.91;5017904;28;19909;-46
2023/08/13 07:30:11;;;;;;;;;;;32.20;53.00;;;26.84;67.12;95815.59;5010491;28;19992;-47
2023/08/13 07:32:42;;;;;;;;;;;32.40;52.70;;;26.99;65.41;95808.44;5010013;28;19909;-48
2023/08/13 07:35:10;;;;;;;;;;;32.70;52.50;;;27.30;64.40;95809.34;4999372;28;20011;-47
2023/08/13 07:37:36;;;;;;;;;;;33.00;52.10;;;27.38;63.35;95817.28;4995581;28;19953;-46
2023/08/13 07:40:11;;;;;;;;;;;33.20;51.70;;;27.53;62.92;95806.56;5016407;28;20291;-47
2023/08/13 07:42:39;;;;;;;;;;;33.40;51.30;;;27.84;60.94;95809.00;4994764;28;20264;-48
2023/08/13 07:45:06;;;;;;;;;;;33.60;51.00;;;27.98;60.95;95811.13;4997003;28;19918;-46
2023/08/13 07:47:33;;;;;;;;;;;33.80;50.70;;;28.16;60.32;95805.88;5019670;28;19916;-46
2023/08/13 07:50:00;;;;;;;;;;;34.10;50.50;;;28.27;59.82;95808.75;4998637;28;19909;-45
2023/08/13 07:52:25;;;;;;;;;;;34.30;50.20;;;28.37;59.36;95810.81;4998784;28;20406;-46
2023/08/13 07:54:51;;;;;;;;;;;34.50;49.80;;;28.55;59.25;95802.81;5012719;28;19948;-49
2023/08/13 07:57:17;;;;;;;;;;;34.70;49.50;;;28.97;57.91;95801.66;5006724;28;19914;-46
2023/08/13 07:59:43;;;;;;;;;;;35.00;49.30;;;29.31;56.69;95804.31;5003399;28;19962;-46
2023/08/13 08:02:08;;;;;;;;;;;35.20;49.00;;;29.39;55.65;95809.47;4998862;28;20356;-46
2023/08/13 08:04:34;;;;;;;;;;;35.40;48.80;;;29.55;55.76;95795.47;5011600;23;19933;-47
2023/08/13 08:07:00;;;;;;;;;;;35.50;48.40;;;29.93;55.46;95801.63;4979225;28;19924;-52
2023/08/13 08:09:26;;;;;;;;;;;35.80;48.30;;;30.31;53.51;95802.19;4997680;28;19914;-44
2023/08/13 08:11:52;;;;;;;;;;;36.20;48.10;;;30.55;52.72;95803.44;4988797;28;20384;-48
2023/08/13 08:14:17;;;;;;;;;;;36.40;47.70;;;30.56;52.92;95814.03;4982598;28;20382;-47
2023/08/13 08:16:43;;;;;;;;;;;36.70;47.30;;;30.76;51.25;95797.97;4969049;28;19916;-46
2023/08/13 08:19:09;;;;;;;;;;;36.90;46.90;;;30.93;51.39;95796.44;4963299;28;19916;-48
2023/08/13 08:21:36;;;;;;;;;;;37.10;46.60;;;30.91;50.49;95793.31;4970409;28;20056;-45
2023/08/13 08:24:03;;;;;;;;;;;37.40;46.20;;;30.98;50.04;95796.06;4973189;28;20016;-45
2023/08/13 08:26:29;;;;;;;;;;;37.50;45.90;;;30.91;50.11;95787.03;4977025;28;20000;-45
2023/08/13 08:28:55;;;;;;;;;;;37.60;45.50;;;31.22;49.23;95786.25;4964960;28;19916;-45
2023/08/13 08:31:20;;;;;;;;;;;37.80;45.30;;;31.58;47.91;95787.00;4970002;28;19953;-48
2023/08/13 08:33:46;;;;;;;;;;;37.90;45.00;;;31.93;47.10;95782.63;4971224;28;19917;-50
2023/08/13 08:36:12;;;;;;;;;;;38.10;45.30;;;32.26;47.81;95775.03;4956893;28;20269;-48
2023/08/13 08:38:38;;;;;;;;;;;38.20;44.50;;;32.36;46.92;95781.69;4962541;28;19910;-48
2023/08/13 08:41:04;;;;;;;;;;;38.40;44.10;;;32.68;45.33;95781.53;4956082;28;19910;-46
2023/08/13 08:43:31;;;;;;;;;;;38.40;43.90;;;32.34;44.65;95781.28;4962822;28;19917;-48
2023/08/13 08:45:58;;;;;;;;;;;38.50;43.70;;;31.87;45.40;95778.72;4968267;28;20269;-47
2023/08/13 08:48:29;;;;;;;;;;;38.70;43.40;;;31.96;45.22;95784.59;4962883;28;19913;-44
2023/08/13 08:50:56;;;;;;;;;;;38.70;42.90;;;32.22;44.88;95777.03;4969869;28;20327;-46
2023/08/13 08:53:22;;;;;;;;;;;38.70;42.60;;;32.14;44.70;95776.25;4971004;28;19910;-48
2023/08/13 08:55:49;;;;;;;;;;;38.80;42.50;;;32.60;44.63;95771.75;4968452;28;19941;-49
2023/08/13 08:58:15;;;;;;;;;;;39.00;42.30;;;32.81;43.19;95770.78;4968426;28;20296;-45
2023/08/13 09:00:41;;;;;;;;;;;39.10;42.10;;;32.94;43.18;95764.41;4968135;28;19916;-48
2023/08/13 09:03:07;;;;;;;;;;;39.20;41.80;;;32.96;42.69;95761.22;4970739;28;20272;-47
2023/08/13 09:05:33;;;;;;;;;;;39.40;41.50;;;33.22;42.25;95759.88;4965666;28;20327;-45
2023/08/13 09:07:58;;;;;;;;;;;39.60;41.20;;;33.20;42.03;95756.72;4978878;28;20341;-48
2023/08/13 09:10:24;;;;;;;;;;;39.70;41.00;;;33.03;42.10;95757.66;4964518;28;19925;-47
2023/08/13 09:12:53;;;;;;;;;;;39.80;40.80;;;33.48;41.83;95755.69;4965429;28;19910;-45
2023/08/13 09:15:19;;;;;;;;;;;39.90;40.60;;;33.32;41.33;95759.00;4958983;28;19965;-45
2023/08/13 09:17:45;;;;;;;;;;;40.00;40.40;;;33.49;40.92;95753.69;4965093;28;20372;-46
2023/08/13 09:20:21;;;;;;;;;;;40.10;40.10;;;33.57;40.86;95752.47;4960655;28;19916;-45
2023/08/13 09:22:48;;;;;;;;;;;40.20;39.90;;;33.69;41.95;95748.38;4961888;28;19964;-48
2023/08/13 09:25:15;;;;;;;;;;;40.30;39.70;;;34.21;40.19;95745.44;4957290;28;20381;-48
2023/08/13 09:27:42;;;;;;;;;;;40.40;39.50;;;34.54;39.57;95746.59;4972663;28;20361;-46
2023/08/13 09:30:19;;;;;;;;;;;40.60;39.30;;;34.36;39.49;95748.81;4959221;28;20280;-45
2023/08/13 09:32:48;;;;;;;;;;;40.80;39.10;;;34.26;39.14;95745.78;4973011;28;19945;-47
2023/08/13 09:35:15;;;;;;;;;;;40.90;38.70;;;34.21;40.20;95746.22;4958483;28;20008;-50
2023/08/13 09:37:41;;;;;;;;;;;41.00;38.30;;;34.34;38.54;95740.91;4973667;28;19909;-45
2023/08/13 09:40:07;;;;;;;;;;;41.20;38.00;;;34.56;38.18;95746.19;4957435;28;19920;-45
2023/08/13 09:42:34;;;;;;;;;;;41.40;37.70;;;34.68;38.06;95738.09;4963595;28;19996;-46
2023/08/13 09:45:03;;;;;;;;;;;41.40;37.50;;;34.96;37.34;95738.84;4980752;28;19921;-45
2023/08/13 09:47:32;;;;;;;;;;;41.60;37.30;;;34.49;37.92;95741.50;4961109;28;19941;-45
2023/08/13 09:50:01;;;;;;;;;;;41.70;37.00;;;34.76;38.16;95734.03;4952700;28;19910;-47
2023/08/13 09:52:29;;;;;;;;;;;41.80;36.80;;;35.16;36.95;95720.38;4970914;28;20304;-46
2023/08/13 09:55:11;;;;;;;;;;;42.00;36.70;;;35.11;37.65;95715.31;4952832;28;20296;-47
2023/08/13 09:57:40;;;;;;;;;;;42.10;36.40;;;35.39;37.38;95713.25;4949052;28;19910;-48
2023/08/13 10:00:11;;;;;;;;;;;42.30;36.30;;;35.54;36.33;95713.75;4960636;28;19996;-46
2023/08/13 10:02:40;;;;;;;;;;;42.50;36.20;;;35.32;36.69;95721.66;4966009;28;20276;-46
2023/08/13 10:05:07;;;;;;;;;;;42.40;35.80;;;35.16;36.61;95712.06;4961657;28;19929;-45
2023/08/13 10:07:36;;;;;;;;;;;42.40;35.40;;;35.20;36.41;95701.69;4970181;28;20349;-45
2023/08/13 10:10:03;;;;;;;;;;;42.40;35.30;;;35.50;36.65;95707.50;4975087;28;19914;-46
2023/08/13 10:12:30;;;;;;;;;;;42.60;35.30;;;36.04;36.00;95705.28;4962842;28;19910;-46
2023/08/13 10:14:58;;;;;;;;;;;42.80;35.20;;;36.24;34.88;95704.47;4972067;28;20032;-47
2023/08/13 10:17:27;;;;;;;;;;;43.00;35.10;;;36.53;35.25;95704.63;4962642;28;19910;-46
2023/08/13 10:19:56;;;;;;;;;;;43.20;34.70;;;36.13;33.84;95701.91;4974706;28;20004;-46
2023/08/13 10:22:37;;;;;;;;;;;43.20;34.30;;;36.16;34.64;95698.28;4974105;28;20059;-45
2023/08/13 10:25:07;;;;;;;;;;;43.00;34.30;;;36.51;34.13;95704.28;4956645;28;20353;-53
2023/08/13 10:27:42;;;;;;;;;;;43.00;34.30;;;36.12;34.86;95701.13;4960983;28;20345;-48
2023/08/13 10:30:14;;;;;;;;;;;42.90;34.30;;;36.11;34.48;95694.03;4967706;28;19910;-50
2023/08/13 10:32:58;;;;;;;;;;;42.70;33.90;;;35.95;34.29;95696.75;4962121;28;19910;-45
2023/08/13 10:35:37;;;;;;;;;;;42.20;33.80;;;35.51;34.25;95695.19;4972191;28;19910;-46
2023/08/13 10:38:05;;;;;;;;;;;42.00;33.80;;;35.49;34.88;95698.41;4977391;28;20408;-52
2023/08/13 10:40:32;;;;;;;;;;;42.00;33.90;;;35.91;35.59;95693.25;4978923;28;19913;-45
2023/08/13 10:43:19;;;;;;;;;;;42.30;33.90;;;36.20;33.60;95685.16;4974847;28;20020;-46
2023/08/13 10:45:45;;;;;;;;;;;42.60;33.60;;;35.88;33.30;95683.00;4968765;28;20320;-45
2023/08/13 10:48:11;;;;;;;;;;;42.90;33.40;;;36.30;34.36;95680.56;4963492;28;19910;-46
2023/08/13 10:50:41;;;;;;;;;;;43.10;33.20;;;36.67;33.09;95684.09;4962885;28;20348;-49
2023/08/13 10:53:10;;;;;;;;;;;43.20;33.00;;;37.10;31.97;95672.75;4957439;28;19913;-49
2023/08/13 10:55:46;;;;;;;;;;;43.50;32.90;;;37.31;30.93;95679.75;4963010;28;20723;-46
2023/08/13 10:58:51;;;;;;;;;;;43.80;32.70;;;37.53;30.78;95679.97;4971420;28;19952;-49
2023/08/13 11:01:20;;;;;;;;;;;44.10;32.40;;;37.58;30.71;95678.66;4941887;28;19961;-52
2023/08/13 11:03:55;;;;;;;;;;;44.20;32.00;;;37.87;31.42;95684.19;4954478;28;19921;-55
2023/08/13 11:06:23;;;;;;;;;;;44.30;31.80;;;37.78;30.02;95684.06;4970688;28;19918;-49
2023/08/13 11:08:49;;;;;;;;;;;44.60;31.70;;;38.08;30.16;95674.47;4964405;28;19910;-46
2023/08/13 11:11:17;;;;;;;;;;;44.80;31.50;;;38.29;29.21;95686.94;4971770;28;20415;-46
2023/08/13 11:13:44;;;;;;;;;;;45.10;31.40;;;38.55;29.35;95676.63;4974258;28;20008;-46